sensor_id;sensor_type;location;lat;lon;timestamp;P1;durP1;ratioP1;P2;durP2;ratioP2
34930;SDS011;21134;49.646;8.560;2023-11-18T00:00:21;0.90;;;0.83;;
34930;SDS011;21134;49.646;8.560;2023-11-18T00:02:48;2.00;;;1.50;;
34930;SDS011;21134;49.646;8.560;2023-11-18T00:05:14;1.50;;;1.00;;
34930;SDS011;21134;49.646;8.560;2023-11-18T00:07:41;0.80;;;0.80;;
34930;SDS011;21134;49.646;8.560;2023-11-18T00:10:08;1.73;;;1.37;;
34930;SDS011;21134;49.646;8.560;2023-11-18T00:12:35;0.77;;;0.50;;
34930;SDS011;21134;49.646;8.560;2023-11-18T00:15:03;2.70;;;1.57;;
34930;SDS011;21134;49.646;8.560;2023-11-18T00:17:33;3.10;;;1.30;;
34930;SDS011;21134;49.646;8.560;2023-11-18T00:20:00;0.80;;;0.73;;
34930;SDS011;21134;49.646;8.560;2023-11-18T00:22:28;0.80;;;0.67;;
34930;SDS011;21134;49.646;8.560;2023-11-18T00:24:54;2.77;;;1.57;;
34930;SDS011;21134;49.646;8.560;2023-11-18T00:27:21;0.90;;;0.87;;
34930;SDS011;21134;49.646;8.560;2023-11-18T00:29:50;1.10;;;0.80;;
34930;SDS011;21134;49.646;8.560;2023-11-18T00:32:19;1.53;;;1.43;;
34930;SDS011;21134;49.646;8.560;2023-11-18T00:34:45;2.63;;;2.10;;
34930;SDS011;21134;49.646;8.560;2023-11-18T00:37:12;8.77;;;2.47;;
34930;SDS011;21134;49.646;8.560;2023-11-18T00:39:39;2.93;;;1.77;;
34930;SDS011;21134;49.646;8.560;2023-11-18T00:42:06;1.20;;;1.03;;
34930;SDS011;21134;49.646;8.560;2023-11-18T00:44:32;1.10;;;1.10;;
34930;SDS011;21134;49.646;8.560;2023-11-18T00:46:59;1.33;;;1.23;;
34930;SDS011;21134;49.646;8.560;2023-11-18T00:49:28;2.23;;;1.77;;
34930;SDS011;21134;49.646;8.560;2023-11-18T00:51:55;10.27;;;2.00;;
34930;SDS011;21134;49.646;8.560;2023-11-18T00:54:22;0.57;;;0.50;;
34930;SDS011;21134;49.646;8.560;2023-11-18T00:56:48;2.00;;;1.00;;
34930;SDS011;21134;49.646;8.560;2023-11-18T00:59:15;5.00;;;1.67;;
34930;SDS011;21134;49.646;8.560;2023-11-18T01:01:41;2.00;;;1.03;;
34930;SDS011;21134;49.646;8.560;2023-11-18T01:04:08;0.33;;;0.33;;
34930;SDS011;21134;49.646;8.560;2023-11-18T01:06:36;1.93;;;0.77;;
34930;SDS011;21134;49.646;8.560;2023-11-18T01:09:02;4.07;;;1.97;;
34930;SDS011;21134;49.646;8.560;2023-11-18T01:11:31;1.17;;;0.67;;
34930;SDS011;21134;49.646;8.560;2023-11-18T01:13:58;4.63;;;0.90;;
34930;SDS011;21134;49.646;8.560;2023-11-18T01:16:24;7.20;;;2.07;;
34930;SDS011;21134;49.646;8.560;2023-11-18T01:18:51;0.77;;;0.57;;
34930;SDS011;21134;49.646;8.560;2023-11-18T01:21:19;4.07;;;0.77;;
34930;SDS011;21134;49.646;8.560;2023-11-18T01:23:48;2.20;;;0.73;;
34930;SDS011;21134;49.646;8.560;2023-11-18T01:26:14;2.07;;;1.50;;
34930;SDS011;21134;49.646;8.560;2023-11-18T01:28:41;3.27;;;0.97;;
34930;SDS011;21134;49.646;8.560;2023-11-18T01:31:08;0.90;;;0.90;;
34930;SDS011;21134;49.646;8.560;2023-11-18T01:33:35;0.90;;;0.77;;
34930;SDS011;21134;49.646;8.560;2023-11-18T01:36:05;3.40;;;1.73;;
34930;SDS011;21134;49.646;8.560;2023-11-18T01:38:33;0.67;;;0.67;;
34930;SDS011;21134;49.646;8.560;2023-11-18T01:41:01;2.57;;;1.23;;
34930;SDS011;21134;49.646;8.560;2023-11-18T01:43:27;2.73;;;1.33;;
34930;SDS011;21134;49.646;8.560;2023-11-18T01:45:56;1.87;;;1.00;;
34930;SDS011;21134;49.646;8.560;2023-11-18T01:48:23;0.93;;;0.93;;
34930;SDS011;21134;49.646;8.560;2023-11-18T01:50:51;4.37;;;0.90;;
34930;SDS011;21134;49.646;8.560;2023-11-18T01:53:18;2.73;;;1.63;;
34930;SDS011;21134;49.646;8.560;2023-11-18T01:55:45;1.30;;;1.20;;
34930;SDS011;21134;49.646;8.560;2023-11-18T01:58:13;0.93;;;0.77;;
34930;SDS011;21134;49.646;8.560;2023-11-18T02:00:44;1.27;;;0.67;;
34930;SDS011;21134;49.646;8.560;2023-11-18T02:03:11;4.27;;;1.63;;
34930;SDS011;21134;49.646;8.560;2023-11-18T02:05:38;1.50;;;1.40;;
34930;SDS011;21134;49.646;8.560;2023-11-18T02:08:04;2.97;;;1.30;;
34930;SDS011;21134;49.646;8.560;2023-11-18T02:10:32;0.43;;;0.37;;
34930;SDS011;21134;49.646;8.560;2023-11-18T02:13:01;1.03;;;0.67;;
34930;SDS011;21134;49.646;8.560;2023-11-18T02:15:34;5.33;;;1.57;;
34930;SDS011;21134;49.646;8.560;2023-11-18T02:18:01;2.43;;;1.67;;
34930;SDS011;21134;49.646;8.560;2023-11-18T02:20:34;2.67;;;1.63;;
34930;SDS011;21134;49.646;8.560;2023-11-18T02:23:01;1.17;;;1.10;;
34930;SDS011;21134;49.646;8.560;2023-11-18T02:25:28;1.00;;;0.87;;
34930;SDS011;21134;49.646;8.560;2023-11-18T02:28:00;1.10;;;0.93;;
34930;SDS011;21134;49.646;8.560;2023-11-18T02:30:27;1.17;;;1.10;;
34930;SDS011;21134;49.646;8.560;2023-11-18T02:32:57;1.10;;;0.97;;
34930;SDS011;21134;49.646;8.560;2023-11-18T02:35:28;1.43;;;1.00;;
34930;SDS011;21134;49.646;8.560;2023-11-18T02:37:57;0.97;;;0.97;;
34930;SDS011;21134;49.646;8.560;2023-11-18T02:40:28;2.23;;;1.43;;
34930;SDS011;21134;49.646;8.560;2023-11-18T02:42:58;1.93;;;1.23;;
34930;SDS011;21134;49.646;8.560;2023-11-18T02:45:30;1.33;;;0.80;;
34930;SDS011;21134;49.646;8.560;2023-11-18T02:47:57;2.10;;;1.77;;
34930;SDS011;21134;49.646;8.560;2023-11-18T02:50:24;1.03;;;0.50;;
34930;SDS011;21134;49.646;8.560;2023-11-18T02:52:52;2.63;;;0.93;;
34930;SDS011;21134;49.646;8.560;2023-11-18T02:55:19;2.93;;;1.40;;
34930;SDS011;21134;49.646;8.560;2023-11-18T02:57:47;0.87;;;0.87;;
34930;SDS011;21134;49.646;8.560;2023-11-18T03:00:16;3.67;;;1.33;;
34930;SDS011;21134;49.646;8.560;2023-11-18T03:02:44;0.17;;;0.17;;
34930;SDS011;21134;49.646;8.560;2023-11-18T03:05:12;3.50;;;1.70;;
34930;SDS011;21134;49.646;8.560;2023-11-18T03:07:38;2.23;;;1.20;;
34930;SDS011;21134;49.646;8.560;2023-11-18T03:10:07;1.93;;;1.40;;
34930;SDS011;21134;49.646;8.560;2023-11-18T03:12:36;2.10;;;1.07;;
34930;SDS011;21134;49.646;8.560;2023-11-18T03:15:03;1.40;;;0.93;;
34930;SDS011;21134;49.646;8.560;2023-11-18T03:17:32;0.67;;;0.67;;
34930;SDS011;21134;49.646;8.560;2023-11-18T03:19:58;0.70;;;0.70;;
34930;SDS011;21134;49.646;8.560;2023-11-18T03:22:25;0.93;;;0.57;;
34930;SDS011;21134;49.646;8.560;2023-11-18T03:24:51;1.83;;;0.90;;
34930;SDS011;21134;49.646;8.560;2023-11-18T03:27:18;1.70;;;0.23;;
34930;SDS011;21134;49.646;8.560;2023-11-18T03:29:44;1.03;;;0.83;;
34930;SDS011;21134;49.646;8.560;2023-11-18T03:32:11;0.60;;;0.43;;
34930;SDS011;21134;49.646;8.560;2023-11-18T03:34:39;0.67;;;0.63;;
34930;SDS011;21134;49.646;8.560;2023-11-18T03:37:05;0.93;;;0.93;;
34930;SDS011;21134;49.646;8.560;2023-11-18T03:39:31;1.27;;;1.13;;
34930;SDS011;21134;49.646;8.560;2023-11-18T03:41:58;0.33;;;0.33;;
34930;SDS011;21134;49.646;8.560;2023-11-18T03:44:25;0.97;;;0.40;;
34930;SDS011;21134;49.646;8.560;2023-11-18T03:46:51;0.43;;;0.43;;
34930;SDS011;21134;49.646;8.560;2023-11-18T03:49:17;0.33;;;0.33;;
34930;SDS011;21134;49.646;8.560;2023-11-18T03:51:46;0.47;;;0.47;;
34930;SDS011;21134;49.646;8.560;2023-11-18T03:54:13;0.97;;;0.87;;
34930;SDS011;21134;49.646;8.560;2023-11-18T03:56:39;0.73;;;0.60;;
34930;SDS011;21134;49.646;8.560;2023-11-18T03:59:05;0.90;;;0.90;;
34930;SDS011;21134;49.646;8.560;2023-11-18T04:01:32;2.30;;;1.30;;
34930;SDS011;21134;49.646;8.560;2023-11-18T04:03:59;0.20;;;0.20;;
34930;SDS011;21134;49.646;8.560;2023-11-18T04:06:25;0.60;;;0.60;;
34930;SDS011;21134;49.646;8.560;2023-11-18T04:08:53;0.93;;;0.73;;
34930;SDS011;21134;49.646;8.560;2023-11-18T04:11:20;1.60;;;1.50;;
34930;SDS011;21134;49.646;8.560;2023-11-18T04:13:46;2.23;;;0.93;;
34930;SDS011;21134;49.646;8.560;2023-11-18T04:16:13;1.03;;;0.87;;
34930;SDS011;21134;49.646;8.560;2023-11-18T04:18:40;0.50;;;0.47;;
34930;SDS011;21134;49.646;8.560;2023-11-18T04:21:08;3.03;;;1.03;;
34930;SDS011;21134;49.646;8.560;2023-11-18T04:23:36;0.93;;;0.77;;
34930;SDS011;21134;49.646;8.560;2023-11-18T04:26:04;1.47;;;1.30;;
34930;SDS011;21134;49.646;8.560;2023-11-18T04:28:32;1.00;;;0.70;;
34930;SDS011;21134;49.646;8.560;2023-11-18T04:30:58;0.73;;;0.73;;
34930;SDS011;21134;49.646;8.560;2023-11-18T04:33:25;2.13;;;1.77;;
34930;SDS011;21134;49.646;8.560;2023-11-18T04:35:54;0.70;;;0.70;;
34930;SDS011;21134;49.646;8.560;2023-11-18T04:38:22;1.67;;;1.17;;
34930;SDS011;21134;49.646;8.560;2023-11-18T04:40:48;2.33;;;1.23;;
34930;SDS011;21134;49.646;8.560;2023-11-18T04:43:17;4.03;;;1.80;;
34930;SDS011;21134;49.646;8.560;2023-11-18T04:45:43;2.60;;;1.83;;
34930;SDS011;21134;49.646;8.560;2023-11-18T04:48:10;0.57;;;0.57;;
34930;SDS011;21134;49.646;8.560;2023-11-18T04:50:38;0.30;;;0.30;;
34930;SDS011;21134;49.646;8.560;2023-11-18T04:53:05;2.70;;;1.73;;
34930;SDS011;21134;49.646;8.560;2023-11-18T04:55:33;1.73;;;1.63;;
34930;SDS011;21134;49.646;8.560;2023-11-18T04:58:00;4.87;;;1.13;;
34930;SDS011;21134;49.646;8.560;2023-11-18T05:00:27;1.13;;;1.03;;
34930;SDS011;21134;49.646;8.560;2023-11-18T05:02:54;2.33;;;1.13;;
34930;SDS011;21134;49.646;8.560;2023-11-18T05:05:20;0.43;;;0.43;;
34930;SDS011;21134;49.646;8.560;2023-11-18T05:07:47;3.60;;;1.97;;
34930;SDS011;21134;49.646;8.560;2023-11-18T05:10:13;1.07;;;0.97;;
34930;SDS011;21134;49.646;8.560;2023-11-18T05:12:40;0.53;;;0.53;;
34930;SDS011;21134;49.646;8.560;2023-11-18T05:15:08;0.73;;;0.73;;
34930;SDS011;21134;49.646;8.560;2023-11-18T05:17:36;0.73;;;0.73;;
34930;SDS011;21134;49.646;8.560;2023-11-18T05:20:04;1.17;;;0.53;;
34930;SDS011;21134;49.646;8.560;2023-11-18T05:22:33;5.07;;;1.50;;
34930;SDS011;21134;49.646;8.560;2023-11-18T05:25:01;0.73;;;0.73;;
34930;SDS011;21134;49.646;8.560;2023-11-18T05:27:29;2.23;;;2.03;;
34930;SDS011;21134;49.646;8.560;2023-11-18T05:29:56;1.17;;;1.07;;
34930;SDS011;21134;49.646;8.560;2023-11-18T05:32:26;1.00;;;0.90;;
34930;SDS011;21134;49.646;8.560;2023-11-18T05:34:54;3.63;;;1.13;;
34930;SDS011;21134;49.646;8.560;2023-11-18T05:37:22;1.77;;;1.07;;
34930;SDS011;21134;49.646;8.560;2023-11-18T05:39:49;0.50;;;0.50;;
34930;SDS011;21134;49.646;8.560;2023-11-18T05:42:24;2.77;;;1.53;;
34930;SDS011;21134;49.646;8.560;2023-11-18T05:44:50;9.90;;;1.73;;
34930;SDS011;21134;49.646;8.560;2023-11-18T05:47:23;1.27;;;1.17;;
34930;SDS011;21134;49.646;8.560;2023-11-18T05:49:50;3.20;;;1.33;;
34930;SDS011;21134;49.646;8.560;2023-11-18T05:52:18;2.70;;;1.60;;
34930;SDS011;21134;49.646;8.560;2023-11-18T05:54:45;2.70;;;1.83;;
34930;SDS011;21134;49.646;8.560;2023-11-18T05:57:13;2.07;;;1.53;;
34930;SDS011;21134;49.646;8.560;2023-11-18T05:59:41;3.40;;;1.27;;
34930;SDS011;21134;49.646;8.560;2023-11-18T06:02:07;1.40;;;0.70;;
34930;SDS011;21134;49.646;8.560;2023-11-18T06:04:38;7.47;;;1.23;;
34930;SDS011;21134;49.646;8.560;2023-11-18T06:07:04;1.67;;;1.57;;
34930;SDS011;21134;49.646;8.560;2023-11-18T06:09:32;2.47;;;2.17;;
34930;SDS011;21134;49.646;8.560;2023-11-18T06:11:59;1.17;;;1.07;;
34930;SDS011;21134;49.646;8.560;2023-11-18T06:14:26;1.57;;;1.27;;
34930;SDS011;21134;49.646;8.560;2023-11-18T06:16:52;1.67;;;1.57;;
34930;SDS011;21134;49.646;8.560;2023-11-18T06:19:19;0.83;;;0.83;;
34930;SDS011;21134;49.646;8.560;2023-11-18T06:21:46;3.13;;;1.83;;
34930;SDS011;21134;49.646;8.560;2023-11-18T06:24:12;5.07;;;1.80;;
34930;SDS011;21134;49.646;8.560;2023-11-18T06:26:41;6.00;;;1.80;;
34930;SDS011;21134;49.646;8.560;2023-11-18T06:29:07;4.20;;;2.10;;
34930;SDS011;21134;49.646;8.560;2023-11-18T06:31:34;3.43;;;2.73;;
34930;SDS011;21134;49.646;8.560;2023-11-18T06:34:00;2.87;;;1.63;;
34930;SDS011;21134;49.646;8.560;2023-11-18T06:36:27;2.37;;;2.17;;
34930;SDS011;21134;49.646;8.560;2023-11-18T06:38:56;8.60;;;3.10;;
34930;SDS011;21134;49.646;8.560;2023-11-18T06:41:24;4.80;;;2.93;;
34930;SDS011;21134;49.646;8.560;2023-11-18T06:43:52;6.53;;;1.83;;
34930;SDS011;21134;49.646;8.560;2023-11-18T06:46:26;2.43;;;2.23;;
34930;SDS011;21134;49.646;8.560;2023-11-18T06:48:56;5.73;;;3.63;;
34930;SDS011;21134;49.646;8.560;2023-11-18T06:51:25;3.53;;;1.97;;
34930;SDS011;21134;49.646;8.560;2023-11-18T06:53:52;2.27;;;1.83;;
34930;SDS011;21134;49.646;8.560;2023-11-18T06:56:20;4.23;;;2.17;;
34930;SDS011;21134;49.646;8.560;2023-11-18T06:58:46;4.90;;;3.27;;
34930;SDS011;21134;49.646;8.560;2023-11-18T07:01:14;10.77;;;4.30;;
34930;SDS011;21134;49.646;8.560;2023-11-18T07:03:42;3.47;;;2.40;;
34930;SDS011;21134;49.646;8.560;2023-11-18T07:06:09;7.60;;;2.50;;
34930;SDS011;21134;49.646;8.560;2023-11-18T07:08:35;6.53;;;2.53;;
34930;SDS011;21134;49.646;8.560;2023-11-18T07:11:02;2.57;;;2.23;;
34930;SDS011;21134;49.646;8.560;2023-11-18T07:13:31;6.17;;;3.53;;
34930;SDS011;21134;49.646;8.560;2023-11-18T07:15:59;3.33;;;2.20;;
34930;SDS011;21134;49.646;8.560;2023-11-18T07:18:29;9.57;;;2.60;;
34930;SDS011;21134;49.646;8.560;2023-11-18T07:20:56;6.43;;;2.73;;
34930;SDS011;21134;49.646;8.560;2023-11-18T07:23:24;5.30;;;2.83;;
34930;SDS011;21134;49.646;8.560;2023-11-18T07:25:51;9.13;;;3.10;;
34930;SDS011;21134;49.646;8.560;2023-11-18T07:28:18;5.03;;;2.10;;
34930;SDS011;21134;49.646;8.560;2023-11-18T07:30:45;7.33;;;3.10;;
34930;SDS011;21134;49.646;8.560;2023-11-18T07:33:12;8.63;;;3.80;;
34930;SDS011;21134;49.646;8.560;2023-11-18T07:35:40;7.40;;;3.27;;
34930;SDS011;21134;49.646;8.560;2023-11-18T07:38:07;6.57;;;2.43;;
34930;SDS011;21134;49.646;8.560;2023-11-18T07:40:34;11.30;;;4.00;;
34930;SDS011;21134;49.646;8.560;2023-11-18T07:43:02;5.07;;;2.53;;
34930;SDS011;21134;49.646;8.560;2023-11-18T07:45:34;5.97;;;3.80;;
34930;SDS011;21134;49.646;8.560;2023-11-18T07:48:02;5.60;;;3.37;;
34930;SDS011;21134;49.646;8.560;2023-11-18T07:50:31;5.30;;;3.83;;
34930;SDS011;21134;49.646;8.560;2023-11-18T07:52:59;5.03;;;2.00;;
34930;SDS011;21134;49.646;8.560;2023-11-18T07:55:25;13.43;;;4.33;;
34930;SDS011;21134;49.646;8.560;2023-11-18T07:57:52;5.23;;;2.67;;
34930;SDS011;21134;49.646;8.560;2023-11-18T08:00:19;7.80;;;3.07;;
34930;SDS011;21134;49.646;8.560;2023-11-18T08:02:46;13.70;;;4.97;;
34930;SDS011;21134;49.646;8.560;2023-11-18T08:05:13;5.13;;;3.03;;
34930;SDS011;21134;49.646;8.560;2023-11-18T08:07:40;2.90;;;1.80;;
34930;SDS011;21134;49.646;8.560;2023-11-18T08:10:10;5.57;;;3.10;;
34930;SDS011;21134;49.646;8.560;2023-11-18T08:12:38;3.17;;;2.07;;
34930;SDS011;21134;49.646;8.560;2023-11-18T08:15:05;5.27;;;2.77;;
34930;SDS011;21134;49.646;8.560;2023-11-18T08:17:34;6.97;;;3.17;;
34930;SDS011;21134;49.646;8.560;2023-11-18T08:20:00;7.13;;;3.63;;
34930;SDS011;21134;49.646;8.560;2023-11-18T08:22:32;6.83;;;4.07;;
34930;SDS011;21134;49.646;8.560;2023-11-18T08:24:59;3.57;;;2.50;;
34930;SDS011;21134;49.646;8.560;2023-11-18T08:27:27;5.07;;;2.83;;
34930;SDS011;21134;49.646;8.560;2023-11-18T08:29:53;9.17;;;3.03;;
34930;SDS011;21134;49.646;8.560;2023-11-18T08:32:20;5.77;;;4.10;;
34930;SDS011;21134;49.646;8.560;2023-11-18T08:34:50;4.80;;;2.80;;
34930;SDS011;21134;49.646;8.560;2023-11-18T08:37:17;4.40;;;2.20;;
34930;SDS011;21134;49.646;8.560;2023-11-18T08:39:44;9.10;;;3.57;;
34930;SDS011;21134;49.646;8.560;2023-11-18T08:42:10;3.47;;;2.73;;
34930;SDS011;21134;49.646;8.560;2023-11-18T08:44:38;7.13;;;2.73;;
34930;SDS011;21134;49.646;8.560;2023-11-18T08:47:05;2.40;;;1.97;;
34930;SDS011;21134;49.646;8.560;2023-11-18T08:49:33;2.83;;;2.60;;
34930;SDS011;21134;49.646;8.560;2023-11-18T08:52:00;9.40;;;4.57;;
34930;SDS011;21134;49.646;8.560;2023-11-18T08:54:26;5.07;;;2.43;;
34930;SDS011;21134;49.646;8.560;2023-11-18T08:57:01;5.07;;;2.90;;
34930;SDS011;21134;49.646;8.560;2023-11-18T08:59:29;3.87;;;2.73;;
34930;SDS011;21134;49.646;8.560;2023-11-18T09:01:57;7.13;;;2.60;;
34930;SDS011;21134;49.646;8.560;2023-11-18T09:04:24;4.47;;;2.73;;
34930;SDS011;21134;49.646;8.560;2023-11-18T09:06:52;2.13;;;1.93;;
34930;SDS011;21134;49.646;8.560;2023-11-18T09:09:19;2.13;;;1.93;;
34930;SDS011;21134;49.646;8.560;2023-11-18T09:11:51;1.87;;;1.73;;
34930;SDS011;21134;49.646;8.560;2023-11-18T09:14:19;5.17;;;3.70;;
34930;SDS011;21134;49.646;8.560;2023-11-18T09:16:45;2.30;;;1.77;;
34930;SDS011;21134;49.646;8.560;2023-11-18T09:19:13;4.63;;;3.07;;
34930;SDS011;21134;49.646;8.560;2023-11-18T09:21:42;2.80;;;2.23;;
34930;SDS011;21134;49.646;8.560;2023-11-18T09:24:09;2.53;;;1.93;;
34930;SDS011;21134;49.646;8.560;2023-11-18T09:26:38;3.00;;;1.60;;
34930;SDS011;21134;49.646;8.560;2023-11-18T09:29:04;3.67;;;1.93;;
34930;SDS011;21134;49.646;8.560;2023-11-18T09:31:33;6.20;;;2.93;;
34930;SDS011;21134;49.646;8.560;2023-11-18T09:34:01;7.53;;;3.33;;
34930;SDS011;21134;49.646;8.560;2023-11-18T09:36:32;6.60;;;2.57;;
34930;SDS011;21134;49.646;8.560;2023-11-18T09:39:01;1.90;;;1.70;;
34930;SDS011;21134;49.646;8.560;2023-11-18T09:41:28;5.23;;;1.93;;
34930;SDS011;21134;49.646;8.560;2023-11-18T09:43:55;2.63;;;2.17;;
34930;SDS011;21134;49.646;8.560;2023-11-18T09:46:27;2.30;;;2.07;;
34930;SDS011;21134;49.646;8.560;2023-11-18T09:49:00;1.60;;;1.50;;
34930;SDS011;21134;49.646;8.560;2023-11-18T09:51:41;3.83;;;2.53;;
34930;SDS011;21134;49.646;8.560;2023-11-18T09:54:12;1.67;;;1.57;;
34930;SDS011;21134;49.646;8.560;2023-11-18T09:56:48;2.00;;;1.73;;
34930;SDS011;21134;49.646;8.560;2023-11-18T09:59:23;2.30;;;1.17;;
34930;SDS011;21134;49.646;8.560;2023-11-18T10:01:59;3.20;;;2.23;;
34930;SDS011;21134;49.646;8.560;2023-11-18T10:04:29;4.57;;;1.73;;
34930;SDS011;21134;49.646;8.560;2023-11-18T10:06:58;3.80;;;3.23;;
34930;SDS011;21134;49.646;8.560;2023-11-18T10:09:27;5.00;;;2.07;;
34930;SDS011;21134;49.646;8.560;2023-11-18T10:11:54;2.43;;;1.63;;
34930;SDS011;21134;49.646;8.560;2023-11-18T10:14:25;5.43;;;3.63;;
34930;SDS011;21134;49.646;8.560;2023-11-18T10:16:52;7.47;;;3.33;;
34930;SDS011;21134;49.646;8.560;2023-11-18T10:19:19;3.53;;;2.50;;
34930;SDS011;21134;49.646;8.560;2023-11-18T10:21:46;3.40;;;2.03;;
34930;SDS011;21134;49.646;8.560;2023-11-18T10:24:15;2.70;;;1.60;;
34930;SDS011;21134;49.646;8.560;2023-11-18T10:26:44;3.63;;;1.80;;
34930;SDS011;21134;49.646;8.560;2023-11-18T10:29:13;2.87;;;1.80;;
34930;SDS011;21134;49.646;8.560;2023-11-18T10:31:43;2.20;;;1.70;;
34930;SDS011;21134;49.646;8.560;2023-11-18T10:34:11;2.33;;;1.53;;
34930;SDS011;21134;49.646;8.560;2023-11-18T10:36:40;6.40;;;2.30;;
34930;SDS011;21134;49.646;8.560;2023-11-18T10:39:10;3.90;;;2.50;;
34930;SDS011;21134;49.646;8.560;2023-11-18T10:41:42;3.67;;;2.53;;
34930;SDS011;21134;49.646;8.560;2023-11-18T10:44:11;2.03;;;1.63;;
34930;SDS011;21134;49.646;8.560;2023-11-18T10:46:40;4.97;;;2.13;;
34930;SDS011;21134;49.646;8.560;2023-11-18T10:49:07;4.43;;;2.73;;
34930;SDS011;21134;49.646;8.560;2023-11-18T10:51:35;1.83;;;1.53;;
34930;SDS011;21134;49.646;8.560;2023-11-18T10:54:04;9.03;;;2.40;;
34930;SDS011;21134;49.646;8.560;2023-11-18T10:56:40;3.37;;;2.10;;
34930;SDS011;21134;49.646;8.560;2023-11-18T10:59:13;4.33;;;2.00;;
34930;SDS011;21134;49.646;8.560;2023-11-18T11:01:41;7.10;;;3.07;;
34930;SDS011;21134;49.646;8.560;2023-11-18T11:04:08;4.73;;;2.63;;
34930;SDS011;21134;49.646;8.560;2023-11-18T11:06:39;5.60;;;1.77;;
34930;SDS011;21134;49.646;8.560;2023-11-18T11:09:07;2.47;;;1.97;;
34930;SDS011;21134;49.646;8.560;2023-11-18T11:11:43;3.03;;;1.77;;
34930;SDS011;21134;49.646;8.560;2023-11-18T11:14:16;2.30;;;2.10;;
34930;SDS011;21134;49.646;8.560;2023-11-18T11:16:47;3.17;;;1.80;;
34930;SDS011;21134;49.646;8.560;2023-11-18T11:19:20;8.50;;;2.77;;
34930;SDS011;21134;49.646;8.560;2023-11-18T11:21:55;1.30;;;1.10;;
34930;SDS011;21134;49.646;8.560;2023-11-18T11:24:33;1.33;;;0.97;;
34930;SDS011;21134;49.646;8.560;2023-11-18T11:27:23;1.90;;;1.57;;
34930;SDS011;21134;49.646;8.560;2023-11-18T11:30:02;2.30;;;1.73;;
34930;SDS011;21134;49.646;8.560;2023-11-18T11:32:35;1.90;;;1.80;;
34930;SDS011;21134;49.646;8.560;2023-11-18T11:35:15;9.57;;;2.83;;
34930;SDS011;21134;49.646;8.560;2023-11-18T11:37:46;4.73;;;2.13;;
34930;SDS011;21134;49.646;8.560;2023-11-18T11:40:13;3.13;;;2.10;;
34930;SDS011;21134;49.646;8.560;2023-11-18T11:42:48;3.00;;;1.77;;
34930;SDS011;21134;49.646;8.560;2023-11-18T11:45:20;8.70;;;2.67;;
34930;SDS011;21134;49.646;8.560;2023-11-18T11:47:53;5.07;;;2.07;;
34930;SDS011;21134;49.646;8.560;2023-11-18T11:50:37;2.53;;;1.90;;
34930;SDS011;21134;49.646;8.560;2023-11-18T11:53:16;5.40;;;2.40;;
34930;SDS011;21134;49.646;8.560;2023-11-18T11:55:49;5.13;;;1.57;;
34930;SDS011;21134;49.646;8.560;2023-11-18T11:58:29;2.40;;;1.67;;
34930;SDS011;21134;49.646;8.560;2023-11-18T12:00:58;2.63;;;1.80;;
34930;SDS011;21134;49.646;8.560;2023-11-18T12:03:26;3.60;;;1.80;;
34930;SDS011;21134;49.646;8.560;2023-11-18T12:05:54;1.77;;;1.67;;
34930;SDS011;21134;49.646;8.560;2023-11-18T12:08:21;3.27;;;1.87;;
34930;SDS011;21134;49.646;8.560;2023-11-18T12:10:51;1.77;;;0.93;;
34930;SDS011;21134;49.646;8.560;2023-11-18T12:13:19;3.10;;;1.70;;
34930;SDS011;21134;49.646;8.560;2023-11-18T12:15:50;1.30;;;1.10;;
34930;SDS011;21134;49.646;8.560;2023-11-18T12:18:22;6.33;;;1.70;;
34930;SDS011;21134;49.646;8.560;2023-11-18T12:20:49;2.47;;;1.00;;
34930;SDS011;21134;49.646;8.560;2023-11-18T12:23:19;1.47;;;1.37;;
34930;SDS011;21134;49.646;8.560;2023-11-18T12:25:48;2.17;;;1.03;;
34930;SDS011;21134;49.646;8.560;2023-11-18T12:28:19;1.83;;;1.60;;
34930;SDS011;21134;49.646;8.560;2023-11-18T12:30:53;2.93;;;1.03;;
34930;SDS011;21134;49.646;8.560;2023-11-18T12:42:22;1.03;;;0.90;;
34930;SDS011;21134;49.646;8.560;2023-11-18T12:45:34;3.93;;;0.90;;
34930;SDS011;21134;49.646;8.560;2023-11-18T12:48:12;0.63;;;0.43;;
34930;SDS011;21134;49.646;8.560;2023-11-18T12:50:41;2.83;;;0.80;;
34930;SDS011;21134;49.646;8.560;2023-11-18T12:53:09;1.73;;;0.93;;
34930;SDS011;21134;49.646;8.560;2023-11-18T12:55:39;3.80;;;1.13;;
34930;SDS011;21134;49.646;8.560;2023-11-18T12:58:06;1.03;;;0.93;;
34930;SDS011;21134;49.646;8.560;2023-11-18T13:00:33;2.20;;;1.07;;
34930;SDS011;21134;49.646;8.560;2023-11-18T13:03:01;0.63;;;0.60;;
34930;SDS011;21134;49.646;8.560;2023-11-18T13:05:31;0.77;;;0.77;;
34930;SDS011;21134;49.646;8.560;2023-11-18T13:07:58;2.03;;;1.00;;
34930;SDS011;21134;49.646;8.560;2023-11-18T13:10:26;2.40;;;0.97;;
34930;SDS011;21134;49.646;8.560;2023-11-18T13:12:53;3.50;;;1.10;;
34930;SDS011;21134;49.646;8.560;2023-11-18T13:15:20;1.77;;;0.97;;
34930;SDS011;21134;49.646;8.560;2023-11-18T13:17:59;1.30;;;1.20;;
34930;SDS011;21134;49.646;8.560;2023-11-18T13:20:26;0.40;;;0.40;;
34930;SDS011;21134;49.646;8.560;2023-11-18T13:22:54;1.67;;;1.17;;
34930;SDS011;21134;49.646;8.560;2023-11-18T13:25:22;1.17;;;0.80;;
34930;SDS011;21134;49.646;8.560;2023-11-18T13:27:50;5.97;;;0.87;;
34930;SDS011;21134;49.646;8.560;2023-11-18T13:30:17;1.40;;;1.07;;
34930;SDS011;21134;49.646;8.560;2023-11-18T13:32:45;1.13;;;0.80;;
34930;SDS011;21134;49.646;8.560;2023-11-18T13:35:14;1.07;;;0.97;;
34930;SDS011;21134;49.646;8.560;2023-11-18T13:37:45;1.10;;;0.97;;
34930;SDS011;21134;49.646;8.560;2023-11-18T13:40:15;0.30;;;0.30;;
34930;SDS011;21134;49.646;8.560;2023-11-18T13:42:43;3.10;;;0.57;;
34930;SDS011;21134;49.646;8.560;2023-11-18T13:45:11;0.50;;;0.50;;
34930;SDS011;21134;49.646;8.560;2023-11-18T13:47:47;3.73;;;1.50;;
34930;SDS011;21134;49.646;8.560;2023-11-18T13:50:16;0.17;;;0.17;;
34930;SDS011;21134;49.646;8.560;2023-11-18T13:52:42;5.13;;;1.23;;
34930;SDS011;21134;49.646;8.560;2023-11-18T13:55:09;3.80;;;1.90;;
34930;SDS011;21134;49.646;8.560;2023-11-18T13:57:43;5.60;;;2.93;;
34930;SDS011;21134;49.646;8.560;2023-11-18T14:00:10;1.47;;;1.37;;
34930;SDS011;21134;49.646;8.560;2023-11-18T14:02:41;1.43;;;1.03;;
34930;SDS011;21134;49.646;8.560;2023-11-18T14:05:14;2.80;;;1.50;;
34930;SDS011;21134;49.646;8.560;2023-11-18T14:07:42;2.60;;;2.30;;
34930;SDS011;21134;49.646;8.560;2023-11-18T14:10:08;6.10;;;3.07;;
34930;SDS011;21134;49.646;8.560;2023-11-18T14:12:38;14.50;;;7.77;;
34930;SDS011;21134;49.646;8.560;2023-11-18T14:15:06;7.57;;;3.60;;
34930;SDS011;21134;49.646;8.560;2023-11-18T14:17:35;0.93;;;0.93;;
34930;SDS011;21134;49.646;8.560;2023-11-18T14:20:01;2.03;;;1.57;;
34930;SDS011;21134;49.646;8.560;2023-11-18T14:22:28;1.27;;;1.17;;
34930;SDS011;21134;49.646;8.560;2023-11-18T14:24:54;2.40;;;1.23;;
34930;SDS011;21134;49.646;8.560;2023-11-18T14:27:21;1.03;;;0.93;;
34930;SDS011;21134;49.646;8.560;2023-11-18T14:29:47;6.83;;;0.73;;
34930;SDS011;21134;49.646;8.560;2023-11-18T14:32:15;0.30;;;0.30;;
34930;SDS011;21134;49.646;8.560;2023-11-18T14:34:41;0.50;;;0.30;;
34930;SDS011;21134;49.646;8.560;2023-11-18T14:37:08;0.30;;;0.30;;
34930;SDS011;21134;49.646;8.560;2023-11-18T14:39:34;0.63;;;0.60;;
34930;SDS011;21134;49.646;8.560;2023-11-18T14:42:02;3.20;;;0.97;;
34930;SDS011;21134;49.646;8.560;2023-11-18T14:44:29;0.80;;;0.57;;
34930;SDS011;21134;49.646;8.560;2023-11-18T14:46:55;0.73;;;0.60;;
34930;SDS011;21134;49.646;8.560;2023-11-18T14:49:23;1.03;;;0.97;;
34930;SDS011;21134;49.646;8.560;2023-11-18T14:51:50;2.83;;;1.10;;
34930;SDS011;21134;49.646;8.560;2023-11-18T14:54:16;0.80;;;0.53;;
34930;SDS011;21134;49.646;8.560;2023-11-18T14:56:43;0.27;;;0.27;;
34930;SDS011;21134;49.646;8.560;2023-11-18T14:59:12;0.30;;;0.30;;
34930;SDS011;21134;49.646;8.560;2023-11-18T15:01:39;7.50;;;1.17;;
34930;SDS011;21134;49.646;8.560;2023-11-18T15:04:09;4.17;;;1.50;;